createdAt,value
2022-12-17T00:00:37.490Z,98466.1
2022-12-17T00:06:13.466Z,98464.2
2022-12-17T00:11:48.603Z,98464.6
2022-12-17T00:17:23.685Z,98465.5
2022-12-17T00:22:58.904Z,98466.9
2022-12-17T00:28:35.214Z,98467.7
2022-12-17T00:34:15.529Z,98471
2022-12-17T00:40:00.099Z,98473.3
2022-12-17T00:45:36.644Z,98472.4
2022-12-17T00:51:13.468Z,98475.3
2022-12-17T00:56:48.508Z,98473.4
2022-12-17T01:02:27.559Z,98465.5
2022-12-17T01:08:04.410Z,98460.8
2022-12-17T01:13:40.559Z,98461.8
2022-12-17T01:19:16.951Z,98464.2
2022-12-17T01:24:52.569Z,98462.6
2022-12-17T01:30:30.965Z,98461.8
2022-12-17T01:36:05.925Z,98459.3
2022-12-17T01:41:41.982Z,98464.4
2022-12-17T01:47:40.171Z,98468.1
2022-12-17T01:53:12.723Z,98469.2
2022-12-17T01:58:48.579Z,98469.5
2022-12-17T02:04:24.052Z,98472.1
2022-12-17T02:09:59.177Z,98477.6
2022-12-17T02:15:33.952Z,98479.2
2022-12-17T02:21:08.915Z,98480.9
2022-12-17T02:26:44.789Z,98488.6
2022-12-17T02:32:20.394Z,98491.6
2022-12-17T02:37:55.533Z,98493.7
2022-12-17T02:43:30.660Z,98499
2022-12-17T02:49:28.519Z,98500.1
2022-12-17T02:55:02.868Z,98500.7
2022-12-17T03:00:37.911Z,98502.9
2022-12-17T03:06:12.900Z,98506.1
2022-12-17T03:11:48.393Z,98510.7
2022-12-17T03:17:24.215Z,98510.5
2022-12-17T03:22:59.112Z,98516.9
2022-12-17T03:28:34.141Z,98519.4
2022-12-17T03:34:10.299Z,98520
2022-12-17T03:39:45.272Z,98528
2022-12-17T03:45:21.390Z,98529.2
2022-12-17T03:50:56.539Z,98520.1
2022-12-17T03:56:31.317Z,98514
2022-12-17T04:02:07.428Z,98506.2
2022-12-17T04:07:44.132Z,98517
2022-12-17T04:13:19.328Z,98518.6
2022-12-17T04:18:55.462Z,98516.1
2022-12-17T04:24:30.882Z,98516.4
2022-12-17T04:30:06.577Z,98511.5
2022-12-17T04:35:41.540Z,98509.2
2022-12-17T04:41:19.860Z,98509.9
2022-12-17T04:47:16.462Z,98507.6
2022-12-17T04:52:49.765Z,98509.5
2022-12-17T04:58:25.991Z,98507
2022-12-17T05:04:01.651Z,98508.8
2022-12-17T05:09:37.957Z,98514.9
2022-12-17T05:15:13.961Z,98522.1
2022-12-17T05:20:49.215Z,98527.7
2022-12-17T05:26:24.253Z,98534
2022-12-17T05:31:59.091Z,98546.2
2022-12-17T05:37:34.546Z,98547.6
2022-12-17T05:43:10.775Z,98553.9
2022-12-17T05:49:10.676Z,98564.1
2022-12-17T05:54:43.817Z,98565
2022-12-17T06:00:19.653Z,98566.8
2022-12-17T06:05:54.804Z,98570.5
2022-12-17T06:11:30.439Z,98575
2022-12-17T06:17:05.650Z,98571.9
2022-12-17T06:22:40.676Z,98567.9
2022-12-17T06:28:15.696Z,98567.2
2022-12-17T06:33:52.122Z,98577.2
2022-12-17T06:39:27.070Z,98579.8
2022-12-17T06:45:02.406Z,98582
2022-12-17T06:50:42.735Z,98584.2
2022-12-17T06:56:19.096Z,98586.6
2022-12-17T07:01:54.809Z,98586.8
2022-12-17T07:07:32.363Z,98589.7
2022-12-17T07:13:08.286Z,98587.2
2022-12-17T07:18:43.248Z,98589.5
2022-12-17T07:24:17.966Z,98590.3
2022-12-17T07:29:53.128Z,98590
2022-12-17T07:35:28.362Z,98594.6
2022-12-17T07:41:03.248Z,98602.5
2022-12-17T07:47:00.289Z,98612.1
2022-12-17T07:52:33.248Z,98616.1
2022-12-17T07:58:08.372Z,98618.1
2022-12-17T08:03:45.429Z,98627.7
2022-12-17T08:09:21.826Z,98637.5
2022-12-17T08:14:58.207Z,98649.3
2022-12-17T08:20:33.659Z,98658.7
2022-12-17T08:26:08.714Z,98662.7
2022-12-17T08:31:43.820Z,98669.9
2022-12-17T08:37:18.720Z,98676.5
2022-12-17T08:42:54.921Z,98683.6
2022-12-17T08:48:52.016Z,98687.9
2022-12-17T08:54:24.634Z,98692.4
2022-12-17T08:59:59.552Z,98696
2022-12-17T09:05:34.472Z,98700.1
2022-12-17T09:11:09.879Z,98702
2022-12-17T09:16:53.008Z,98695.8
2022-12-17T09:22:29.513Z,98701.7
2022-12-17T09:28:04.711Z,98711.6
2022-12-17T09:33:41.014Z,98721.4
2022-12-17T09:39:16.228Z,98723.3
2022-12-17T09:44:52.390Z,98723.8
2022-12-17T09:50:27.244Z,98722.1
2022-12-17T09:56:02.454Z,98726.6
2022-12-17T10:01:38.368Z,98731.9
2022-12-17T10:07:15.973Z,98733.6
2022-12-17T10:12:51.095Z,98730
2022-12-17T10:18:27.358Z,98730.8
2022-12-17T10:24:03.222Z,98726
2022-12-17T10:29:48.680Z,98727.8
2022-12-17T10:35:23.858Z,98717.1
2022-12-17T10:41:00.087Z,98721.8
2022-12-17T10:46:56.750Z,98731.8
2022-12-17T10:52:29.537Z,98739.3
2022-12-17T10:58:05.581Z,98733
2022-12-17T11:03:41.573Z,98721.3
2022-12-17T11:09:18.039Z,98710.8
2022-12-17T11:14:53.246Z,98719.5
2022-12-17T11:20:28.541Z,98712.4
2022-12-17T11:26:03.916Z,98707.9
2022-12-17T11:31:39.483Z,98707.9
2022-12-17T11:37:16.194Z,98706.4
2022-12-17T11:42:51.265Z,98707.1
2022-12-17T11:48:26.479Z,98706.2
2022-12-17T11:54:01.701Z,98711.2
2022-12-17T11:59:37.971Z,98719.5
2022-12-17T12:05:13.087Z,98718.5
2022-12-17T12:10:48.370Z,98708.5
2022-12-17T12:16:24.177Z,98706.9
2022-12-17T12:22:00.537Z,98709.4
2022-12-17T12:27:43.695Z,98703.6
2022-12-17T12:33:19.143Z,98707.2
2022-12-17T12:38:54.543Z,98697.8
2022-12-17T12:44:29.545Z,98680.3
2022-12-17T12:50:05.062Z,98661.4
2022-12-17T12:55:40.021Z,98652.4
2022-12-17T13:01:16.625Z,98648.7
2022-12-17T13:06:54.180Z,98653.4
2022-12-17T13:12:29.754Z,98658.6
2022-12-17T13:18:12.980Z,98657.2
2022-12-17T13:23:48.186Z,98660.4
2022-12-17T13:29:23.977Z,98659.7
2022-12-17T13:35:00.316Z,98652.6
2022-12-17T13:40:45.494Z,98636.4
2022-12-17T13:46:48.442Z,98619.7
2022-12-17T13:52:21.315Z,98607.7
2022-12-17T13:57:56.358Z,98611.2
2022-12-17T14:04:10.066Z,98616.4
2022-12-17T14:09:46.651Z,98632
2022-12-17T14:15:21.607Z,98641.6
2022-12-17T14:20:56.525Z,98648.6
2022-12-17T14:26:32.563Z,98645.2
2022-12-17T14:32:08.189Z,98648.3
2022-12-17T14:37:43.902Z,98660.1
2022-12-17T14:43:18.741Z,98662.6
2022-12-17T14:48:54.026Z,98670
2022-12-17T14:54:29.253Z,98674.4
2022-12-17T15:00:04.513Z,98680.1
2022-12-17T15:05:39.396Z,98678.5
2022-12-17T15:11:14.155Z,98678.7
2022-12-17T15:16:50.422Z,98680.8
2022-12-17T15:22:26.002Z,98688.5
2022-12-17T15:28:00.731Z,98696.5
2022-12-17T15:33:36.856Z,98697.6
2022-12-17T15:39:11.697Z,98700.9
2022-12-17T15:44:47.139Z,98715.8
2022-12-17T15:50:26.125Z,98727.2
2022-12-17T15:56:01.534Z,98729.1
2022-12-17T16:01:37.601Z,98725.9
2022-12-17T16:07:16.635Z,98734.8
2022-12-17T16:12:51.510Z,98736.5
2022-12-17T16:18:26.292Z,98736.8
2022-12-17T16:24:01.796Z,98737.2
2022-12-17T16:29:36.771Z,98747.6
2022-12-17T16:35:12.586Z,98733.5
2022-12-17T16:40:47.385Z,98742.3
2022-12-17T16:46:23.101Z,98749.8
2022-12-17T16:51:58.359Z,98740.6
2022-12-17T16:57:33.688Z,98743.6
2022-12-17T17:03:09.965Z,98750.1
2022-12-17T17:08:46.399Z,98755.6
2022-12-17T17:14:21.621Z,98756.8
2022-12-17T17:19:56.555Z,98758.4
2022-12-17T17:25:59.266Z,98759.4
2022-12-17T17:32:12.959Z,98769.4
2022-12-17T17:37:50.495Z,98776.7
2022-12-17T17:43:36.993Z,98789.4
2022-12-17T17:49:12.017Z,98791.8
2022-12-17T17:54:48.590Z,98793.7
2022-12-17T18:00:24.806Z,98801.5
2022-12-17T18:05:59.456Z,98809.2
2022-12-17T18:11:35.244Z,98822
2022-12-17T18:17:10.389Z,98833.8
2022-12-17T18:22:46.045Z,98837.2
2022-12-17T18:28:22.590Z,98839.5
2022-12-17T18:33:58.113Z,98844.1
2022-12-17T18:39:43.682Z,98849.4
2022-12-17T18:45:19.916Z,98845
2022-12-17T18:51:02.795Z,98844.6
2022-12-17T18:57:03.068Z,98844.9
2022-12-17T19:02:39.764Z,98847.1
2022-12-17T19:08:16.221Z,98857.6
2022-12-17T19:13:51.422Z,98869.9
2022-12-17T19:19:26.636Z,98871.7
2022-12-17T19:25:02.522Z,98879.1
2022-12-17T19:30:37.578Z,98881.8
2022-12-17T19:36:12.884Z,98882.8
2022-12-17T19:41:47.926Z,98885.9
2022-12-17T19:47:23.029Z,98889.3
2022-12-17T19:52:58.520Z,98893.4
2022-12-17T19:58:33.482Z,98891.7
2022-12-17T20:04:10.411Z,98897.3
2022-12-17T20:09:49.529Z,98902.1
2022-12-17T20:15:45.883Z,98907.3
2022-12-17T20:21:22.093Z,98911.6
2022-12-17T20:26:57.322Z,98919.4
2022-12-17T20:32:32.931Z,98920
2022-12-17T20:38:09.824Z,98924.2
2022-12-17T20:43:45.996Z,98931.4
2022-12-17T20:49:25.639Z,98938.9
2022-12-17T20:55:00.619Z,98938.6
2022-12-17T21:00:37.313Z,98943
2022-12-17T21:06:12.756Z,98949
2022-12-17T21:11:47.890Z,98958.7
2022-12-17T21:17:25.121Z,98960.8
2022-12-17T21:23:00.959Z,98968.3
2022-12-17T21:28:38.485Z,98972.7
2022-12-17T21:34:17.059Z,98971
2022-12-17T21:40:00.640Z,98983.8
2022-12-17T21:45:36.423Z,98994.1
2022-12-17T21:51:14.034Z,98997.4
2022-12-17T21:56:51.102Z,98999.7
2022-12-17T22:02:27.249Z,99005.7
2022-12-17T22:08:05.024Z,99010.7
2022-12-17T22:13:43.280Z,99015.4
2022-12-17T22:19:23.174Z,99016.5
2022-12-17T22:25:09.605Z,99016.6
2022-12-17T22:30:51.840Z,99029.2
2022-12-17T22:44:52.966Z,99035.5
2022-12-17T22:51:11.810Z,99037.8
2022-12-17T22:57:39.093Z,99044
2022-12-17T23:03:16.845Z,99056
2022-12-17T23:08:54.492Z,99055
2022-12-17T23:14:29.286Z,99050.1
2022-12-17T23:20:04.673Z,99038.5
2022-12-17T23:25:39.906Z,99036.3
2022-12-17T23:31:24.536Z,99041.1
2022-12-17T23:37:01.522Z,99042.4
2022-12-17T23:42:38.997Z,99046
2022-12-17T23:48:21.960Z,99046.9
2022-12-17T23:53:57.808Z,99046.8
2022-12-17T23:59:33.181Z,99053.3
